sensor_id;sensor_type;location;lat;lon;timestamp;pressure;altitude;pressure_sealevel;temperature;humidity
44839;BME280;30576;42.098;24.876;2022-07-30T00:02:20;99643.31;;;24.57;47.23
44839;BME280;30576;42.098;24.876;2022-07-30T00:04:46;99621.16;;;24.28;47.46
44839;BME280;30576;42.098;24.876;2022-07-30T00:07:12;99623.72;;;24.42;47.05
44839;BME280;30576;42.098;24.876;2022-07-30T00:09:37;99608.69;;;24.27;47.08
44839;BME280;30576;42.098;24.876;2022-07-30T00:12:04;99630.78;;;24.56;46.86
44839;BME280;30576;42.098;24.876;2022-07-30T00:14:29;99618.44;;;24.41;47.03
44839;BME280;30576;42.098;24.876;2022-07-30T00:16:55;99630.88;;;24.30;47.28
44839;BME280;30576;42.098;24.876;2022-07-30T00:19:21;99622.16;;;24.27;47.42
44839;BME280;30576;42.098;24.876;2022-07-30T00:21:46;99617.88;;;24.11;48.05
44839;BME280;30576;42.098;24.876;2022-07-30T00:24:12;99613.28;;;23.88;48.65
44839;BME280;30576;42.098;24.876;2022-07-30T00:26:37;99614.66;;;24.06;48.19
44839;BME280;30576;42.098;24.876;2022-07-30T00:29:03;99626.66;;;24.26;47.96
44839;BME280;30576;42.098;24.876;2022-07-30T00:31:29;99632.59;;;24.31;48.05
44839;BME280;30576;42.098;24.876;2022-07-30T00:33:55;99610.09;;;24.20;48.12
44839;BME280;30576;42.098;24.876;2022-07-30T00:36:21;99595.44;;;24.11;48.54
44839;BME280;30576;42.098;24.876;2022-07-30T00:38:47;99603.75;;;24.08;48.78
44839;BME280;30576;42.098;24.876;2022-07-30T00:41:13;99593.66;;;23.99;48.60
44839;BME280;30576;42.098;24.876;2022-07-30T00:43:38;99617.66;;;24.15;48.57
44839;BME280;30576;42.098;24.876;2022-07-30T00:46:04;99616.72;;;24.03;48.48
44839;BME280;30576;42.098;24.876;2022-07-30T00:48:29;99621.03;;;24.05;48.66
44839;BME280;30576;42.098;24.876;2022-07-30T00:50:55;99580.84;;;23.89;48.49
44839;BME280;30576;42.098;24.876;2022-07-30T00:53:21;99619.19;;;24.06;49.23
44839;BME280;30576;42.098;24.876;2022-07-30T00:55:46;99618.13;;;24.08;48.84
44839;BME280;30576;42.098;24.876;2022-07-30T00:58:12;99603.91;;;23.93;48.91
44839;BME280;30576;42.098;24.876;2022-07-30T01:00:37;99624.28;;;23.98;49.79
44839;BME280;30576;42.098;24.876;2022-07-30T01:03:03;99625.69;;;23.90;49.61
44839;BME280;30576;42.098;24.876;2022-07-30T01:05:29;99617.06;;;23.85;49.90
44839;BME280;30576;42.098;24.876;2022-07-30T01:07:54;99601.75;;;23.73;49.58
44839;BME280;30576;42.098;24.876;2022-07-30T01:10:20;99594.44;;;23.62;49.55
44839;BME280;30576;42.098;24.876;2022-07-30T01:12:46;99602.72;;;23.72;49.78
44839;BME280;30576;42.098;24.876;2022-07-30T01:15:11;99617.78;;;23.62;50.71
44839;BME280;30576;42.098;24.876;2022-07-30T01:17:37;99608.63;;;23.38;51.70
44839;BME280;30576;42.098;24.876;2022-07-30T01:20:10;99568.81;;;23.18;51.47
44839;BME280;30576;42.098;24.876;2022-07-30T01:25:52;99597.56;;;23.43;51.09
44839;BME280;30576;42.098;24.876;2022-07-30T01:28:25;99589.81;;;23.38;51.68
44839;BME280;30576;42.098;24.876;2022-07-30T01:33:21;99592.84;;;23.47;50.78
44839;BME280;30576;42.098;24.876;2022-07-30T01:35:47;99613.59;;;23.45;51.38
44839;BME280;30576;42.098;24.876;2022-07-30T01:38:16;99610.78;;;23.46;51.37
44839;BME280;30576;42.098;24.876;2022-07-30T01:40:46;99600.13;;;23.32;50.81
44839;BME280;30576;42.098;24.876;2022-07-30T01:43:12;99565.09;;;23.06;50.71
44839;BME280;30576;42.098;24.876;2022-07-30T01:45:39;99588.28;;;23.21;51.11
44839;BME280;30576;42.098;24.876;2022-07-30T01:48:07;99590.13;;;23.34;50.24
44839;BME280;30576;42.098;24.876;2022-07-30T01:50:35;99591.91;;;23.07;51.40
44839;BME280;30576;42.098;24.876;2022-07-30T01:53:01;99585.38;;;23.12;51.67
44839;BME280;30576;42.098;24.876;2022-07-30T01:55:35;99583.69;;;23.23;51.66
44839;BME280;30576;42.098;24.876;2022-07-30T01:58:04;99596.81;;;23.28;51.22
44839;BME280;30576;42.098;24.876;2022-07-30T02:00:32;99556.59;;;22.99;51.95
44839;BME280;30576;42.098;24.876;2022-07-30T02:02:59;99614.13;;;23.24;52.22
44839;BME280;30576;42.098;24.876;2022-07-30T02:05:26;99586.63;;;23.06;52.48
44839;BME280;30576;42.098;24.876;2022-07-30T02:08:00;99595.94;;;23.15;51.62
44839;BME280;30576;42.098;24.876;2022-07-30T02:13:26;99583.59;;;22.98;52.21
44839;BME280;30576;42.098;24.876;2022-07-30T02:16:09;99582.34;;;23.03;52.58
44839;BME280;30576;42.098;24.876;2022-07-30T02:19:02;99611.84;;;23.18;52.46
44839;BME280;30576;42.098;24.876;2022-07-30T02:21:34;99613.22;;;23.11;52.26
44839;BME280;30576;42.098;24.876;2022-07-30T02:24:04;99599.94;;;22.95;52.31
44839;BME280;30576;42.098;24.876;2022-07-30T02:26:31;99594.88;;;22.90;52.25
44839;BME280;30576;42.098;24.876;2022-07-30T02:29:00;99570.88;;;22.74;52.67
44839;BME280;30576;42.098;24.876;2022-07-30T02:31:28;99618.34;;;23.01;52.74
44839;BME280;30576;42.098;24.876;2022-07-30T02:33:58;99604.06;;;23.00;52.89
44839;BME280;30576;42.098;24.876;2022-07-30T02:36:26;99597.25;;;22.95;52.64
44839;BME280;30576;42.098;24.876;2022-07-30T02:38:53;99599.31;;;23.04;52.82
44839;BME280;30576;42.098;24.876;2022-07-30T02:41:21;99596.72;;;22.89;52.59
44839;BME280;30576;42.098;24.876;2022-07-30T02:43:50;99602.94;;;22.90;51.95
44839;BME280;30576;42.098;24.876;2022-07-30T02:46:17;99572.88;;;22.70;52.35
44839;BME280;30576;42.098;24.876;2022-07-30T02:48:44;99607.59;;;22.88;52.30
44839;BME280;30576;42.098;24.876;2022-07-30T02:51:14;99599.56;;;22.74;52.37
44839;BME280;30576;42.098;24.876;2022-07-30T02:53:42;99600.66;;;22.71;52.69
44839;BME280;30576;42.098;24.876;2022-07-30T02:56:10;99581.13;;;22.55;51.78
44839;BME280;30576;42.098;24.876;2022-07-30T02:58:37;99599.75;;;22.70;51.16
44839;BME280;30576;42.098;24.876;2022-07-30T03:01:04;99579.09;;;22.58;51.10
44839;BME280;30576;42.098;24.876;2022-07-30T03:03:31;99587.31;;;22.69;51.30
44839;BME280;30576;42.098;24.876;2022-07-30T03:05:58;99598.50;;;22.76;51.22
44839;BME280;30576;42.098;24.876;2022-07-30T03:08:25;99605.63;;;22.77;51.88
44839;BME280;30576;42.098;24.876;2022-07-30T03:10:53;99602.03;;;22.77;51.28
44839;BME280;30576;42.098;24.876;2022-07-30T03:13:19;99594.06;;;22.62;51.21
44839;BME280;30576;42.098;24.876;2022-07-30T03:15:48;99579.44;;;22.66;51.22
44839;BME280;30576;42.098;24.876;2022-07-30T03:18:17;99591.66;;;22.58;51.79
44839;BME280;30576;42.098;24.876;2022-07-30T03:20:48;99577.69;;;22.52;52.08
44839;BME280;30576;42.098;24.876;2022-07-30T03:23:18;99594.50;;;22.69;52.38
44839;BME280;30576;42.098;24.876;2022-07-30T03:25:48;99561.25;;;22.57;52.48
44839;BME280;30576;42.098;24.876;2022-07-30T03:28:15;99602.84;;;22.92;52.75
44839;BME280;30576;42.098;24.876;2022-07-30T03:30:42;99594.78;;;22.92;52.62
44839;BME280;30576;42.098;24.876;2022-07-30T03:33:08;99599.19;;;22.93;52.77
44839;BME280;30576;42.098;24.876;2022-07-30T03:35:35;99587.88;;;22.87;52.87
44839;BME280;30576;42.098;24.876;2022-07-30T03:38:01;99584.22;;;22.88;52.75
44839;BME280;30576;42.098;24.876;2022-07-30T03:40:27;99573.25;;;22.79;52.88
44839;BME280;30576;42.098;24.876;2022-07-30T03:42:54;99591.03;;;22.94;52.68
44839;BME280;30576;42.098;24.876;2022-07-30T03:45:20;99588.88;;;22.99;52.28
44839;BME280;30576;42.098;24.876;2022-07-30T03:47:46;99597.69;;;23.01;51.76
44839;BME280;30576;42.098;24.876;2022-07-30T03:50:13;99568.00;;;22.90;51.86
44839;BME280;30576;42.098;24.876;2022-07-30T03:52:40;99606.47;;;23.18;52.54
44839;BME280;30576;42.098;24.876;2022-07-30T03:55:07;99592.91;;;23.19;52.31
44839;BME280;30576;42.098;24.876;2022-07-30T03:57:33;99601.09;;;23.31;51.95
44839;BME280;30576;42.098;24.876;2022-07-30T03:59:59;99604.25;;;23.37;51.43
44839;BME280;30576;42.098;24.876;2022-07-30T04:02:25;99608.75;;;23.37;51.46
44839;BME280;30576;42.098;24.876;2022-07-30T04:04:50;99591.97;;;23.33;51.22
44839;BME280;30576;42.098;24.876;2022-07-30T04:07:16;99615.31;;;23.58;51.10
44839;BME280;30576;42.098;24.876;2022-07-30T04:09:41;99603.16;;;23.53;51.39
44839;BME280;30576;42.098;24.876;2022-07-30T04:12:07;99612.63;;;23.58;50.23
44839;BME280;30576;42.098;24.876;2022-07-30T04:14:43;99597.03;;;23.25;50.47
44839;BME280;30576;42.098;24.876;2022-07-30T04:17:20;99577.22;;;22.86;52.21
44839;BME280;30576;42.098;24.876;2022-07-30T04:19:56;99596.94;;;22.99;52.40
44839;BME280;30576;42.098;24.876;2022-07-30T04:22:27;99617.59;;;23.52;51.17
44839;BME280;30576;42.098;24.876;2022-07-30T04:24:55;99592.84;;;23.47;49.00
44839;BME280;30576;42.098;24.876;2022-07-30T04:27:22;99590.00;;;23.35;49.55
44839;BME280;30576;42.098;24.876;2022-07-30T04:29:50;99627.25;;;23.80;49.45
44839;BME280;30576;42.098;24.876;2022-07-30T04:32:17;99599.81;;;23.88;49.07
44839;BME280;30576;42.098;24.876;2022-07-30T04:34:50;99615.09;;;24.13;49.55
44839;BME280;30576;42.098;24.876;2022-07-30T04:37:18;99612.72;;;24.08;50.63
44839;BME280;30576;42.098;24.876;2022-07-30T04:39:44;99614.88;;;24.03;50.52
44839;BME280;30576;42.098;24.876;2022-07-30T04:42:10;99571.16;;;23.74;50.78
44839;BME280;30576;42.098;24.876;2022-07-30T04:44:36;99631.41;;;23.86;51.45
44839;BME280;30576;42.098;24.876;2022-07-30T04:47:02;99616.78;;;24.14;51.35
44839;BME280;30576;42.098;24.876;2022-07-30T04:49:29;99632.84;;;24.16;51.99
44839;BME280;30576;42.098;24.876;2022-07-30T04:51:56;99606.63;;;24.30;51.29
44839;BME280;30576;42.098;24.876;2022-07-30T04:54:23;99627.13;;;24.57;52.26
44839;BME280;30576;42.098;24.876;2022-07-30T04:56:50;99634.31;;;24.33;52.95
44839;BME280;30576;42.098;24.876;2022-07-30T04:59:17;99606.00;;;24.27;52.60
44839;BME280;30576;42.098;24.876;2022-07-30T05:01:45;99610.50;;;24.88;51.36
44839;BME280;30576;42.098;24.876;2022-07-30T05:04:14;99627.19;;;24.93;50.10
44839;BME280;30576;42.098;24.876;2022-07-30T05:06:41;99608.97;;;24.72;48.84
44839;BME280;30576;42.098;24.876;2022-07-30T05:09:08;99634.63;;;25.13;48.67
44839;BME280;30576;42.098;24.876;2022-07-30T05:11:34;99598.91;;;25.10;46.72
44839;BME280;30576;42.098;24.876;2022-07-30T05:13:59;99642.16;;;25.90;46.10
44839;BME280;30576;42.098;24.876;2022-07-30T05:16:25;99609.13;;;26.09;45.61
44839;BME280;30576;42.098;24.876;2022-07-30T05:18:51;99610.75;;;26.12;44.23
44839;BME280;30576;42.098;24.876;2022-07-30T05:21:17;99632.88;;;26.06;45.23
44839;BME280;30576;42.098;24.876;2022-07-30T05:23:42;99626.69;;;26.26;44.69
44839;BME280;30576;42.098;24.876;2022-07-30T05:26:08;99640.38;;;26.46;44.08
44839;BME280;30576;42.098;24.876;2022-07-30T05:28:33;99637.03;;;26.76;43.67
44839;BME280;30576;42.098;24.876;2022-07-30T05:30:59;99617.63;;;27.04;43.71
44839;BME280;30576;42.098;24.876;2022-07-30T05:33:24;99611.66;;;27.31;42.83
44839;BME280;30576;42.098;24.876;2022-07-30T05:35:50;99635.59;;;27.68;42.55
44839;BME280;30576;42.098;24.876;2022-07-30T05:38:16;99633.78;;;27.99;42.12
44839;BME280;30576;42.098;24.876;2022-07-30T05:40:42;99620.41;;;28.17;41.39
44839;BME280;30576;42.098;24.876;2022-07-30T05:43:08;99623.63;;;28.42;41.07
44839;BME280;30576;42.098;24.876;2022-07-30T05:45:34;99615.19;;;28.35;40.98
44839;BME280;30576;42.098;24.876;2022-07-30T05:47:59;99614.28;;;28.66;40.63
44839;BME280;30576;42.098;24.876;2022-07-30T05:50:25;99609.41;;;28.69;40.31
44839;BME280;30576;42.098;24.876;2022-07-30T05:52:50;99628.59;;;28.87;40.48
44839;BME280;30576;42.098;24.876;2022-07-30T05:55:17;99598.72;;;29.26;40.23
44839;BME280;30576;42.098;24.876;2022-07-30T05:57:42;99626.34;;;29.69;38.75
44839;BME280;30576;42.098;24.876;2022-07-30T06:00:09;99620.63;;;29.82;38.65
44839;BME280;30576;42.098;24.876;2022-07-30T06:02:35;99598.56;;;30.13;38.07
44839;BME280;30576;42.098;24.876;2022-07-30T06:05:02;99632.13;;;30.04;38.72
44839;BME280;30576;42.098;24.876;2022-07-30T06:07:27;99607.56;;;29.86;39.08
44839;BME280;30576;42.098;24.876;2022-07-30T06:09:53;99614.97;;;30.21;37.35
44839;BME280;30576;42.098;24.876;2022-07-30T06:12:18;99629.00;;;30.54;36.82
44839;BME280;30576;42.098;24.876;2022-07-30T06:14:44;99624.19;;;30.48;37.24
44839;BME280;30576;42.098;24.876;2022-07-30T06:17:09;99594.81;;;30.69;37.43
44839;BME280;30576;42.098;24.876;2022-07-30T06:19:35;99603.13;;;31.04;36.93
44839;BME280;30576;42.098;24.876;2022-07-30T06:22:00;99595.91;;;31.13;36.55
44839;BME280;30576;42.098;24.876;2022-07-30T06:24:26;99621.41;;;31.12;37.12
44839;BME280;30576;42.098;24.876;2022-07-30T06:26:52;99583.69;;;30.99;37.60
44839;BME280;30576;42.098;24.876;2022-07-30T06:29:17;99618.94;;;31.00;37.23
44839;BME280;30576;42.098;24.876;2022-07-30T06:31:42;99615.41;;;30.54;35.63
44839;BME280;30576;42.098;24.876;2022-07-30T06:34:08;99630.28;;;30.78;36.35
44839;BME280;30576;42.098;24.876;2022-07-30T06:36:35;99596.97;;;30.48;37.67
44839;BME280;30576;42.098;24.876;2022-07-30T06:39:01;99617.66;;;30.77;36.72
44839;BME280;30576;42.098;24.876;2022-07-30T06:41:26;99595.19;;;30.75;35.86
44839;BME280;30576;42.098;24.876;2022-07-30T06:43:52;99619.59;;;30.84;35.96
44839;BME280;30576;42.098;24.876;2022-07-30T06:46:17;99607.97;;;31.10;34.13
44839;BME280;30576;42.098;24.876;2022-07-30T06:48:43;99612.38;;;30.57;35.57
44839;BME280;30576;42.098;24.876;2022-07-30T06:51:08;99607.34;;;30.80;35.54
44839;BME280;30576;42.098;24.876;2022-07-30T06:53:34;99617.22;;;31.17;34.12
44839;BME280;30576;42.098;24.876;2022-07-30T06:55:59;99619.72;;;31.37;33.78
44839;BME280;30576;42.098;24.876;2022-07-30T06:58:25;99596.59;;;31.59;32.89
44839;BME280;30576;42.098;24.876;2022-07-30T07:00:50;99624.94;;;32.43;32.51
44839;BME280;30576;42.098;24.876;2022-07-30T07:03:16;99589.81;;;32.57;32.31
44839;BME280;30576;42.098;24.876;2022-07-30T07:05:41;99602.00;;;32.87;32.17
44839;BME280;30576;42.098;24.876;2022-07-30T07:08:07;99607.28;;;32.80;32.20
44839;BME280;30576;42.098;24.876;2022-07-30T07:10:34;99604.22;;;32.92;32.27
44839;BME280;30576;42.098;24.876;2022-07-30T07:12:59;99603.00;;;32.78;32.53
44839;BME280;30576;42.098;24.876;2022-07-30T07:15:25;99576.22;;;32.73;31.95
44839;BME280;30576;42.098;24.876;2022-07-30T07:17:51;99570.94;;;33.13;31.11
44839;BME280;30576;42.098;24.876;2022-07-30T07:20:17;99579.66;;;33.00;31.45
44839;BME280;30576;42.098;24.876;2022-07-30T07:22:43;99594.50;;;33.14;32.35
44839;BME280;30576;42.098;24.876;2022-07-30T07:25:09;99587.69;;;33.26;31.47
44839;BME280;30576;42.098;24.876;2022-07-30T07:27:35;99600.81;;;33.23;32.97
44839;BME280;30576;42.098;24.876;2022-07-30T07:30:02;99575.72;;;34.00;31.05
44839;BME280;30576;42.098;24.876;2022-07-30T07:32:27;99573.41;;;34.28;31.16
44839;BME280;30576;42.098;24.876;2022-07-30T07:34:53;99579.28;;;34.71;29.79
44839;BME280;30576;42.098;24.876;2022-07-30T07:37:18;99555.38;;;34.88;29.06
44839;BME280;30576;42.098;24.876;2022-07-30T07:39:44;99582.63;;;35.05;28.76
44839;BME280;30576;42.098;24.876;2022-07-30T07:42:09;99552.84;;;35.02;30.53
44839;BME280;30576;42.098;24.876;2022-07-30T07:44:35;99524.25;;;34.81;28.95
44839;BME280;30576;42.098;24.876;2022-07-30T07:47:00;99552.69;;;34.80;28.56
44839;BME280;30576;42.098;24.876;2022-07-30T07:49:26;99539.88;;;34.81;28.86
44839;BME280;30576;42.098;24.876;2022-07-30T07:51:51;99540.03;;;34.56;28.70
44839;BME280;30576;42.098;24.876;2022-07-30T07:54:17;99559.78;;;34.66;28.63
44839;BME280;30576;42.098;24.876;2022-07-30T07:56:42;99554.66;;;35.09;28.25
44839;BME280;30576;42.098;24.876;2022-07-30T07:59:08;99532.97;;;34.85;29.08
44839;BME280;30576;42.098;24.876;2022-07-30T08:01:33;99530.72;;;35.26;28.09
44839;BME280;30576;42.098;24.876;2022-07-30T08:03:59;99538.66;;;34.52;30.01
44839;BME280;30576;42.098;24.876;2022-07-30T08:06:25;99528.03;;;34.80;30.65
44839;BME280;30576;42.098;24.876;2022-07-30T08:08:50;99532.66;;;35.18;29.25
44839;BME280;30576;42.098;24.876;2022-07-30T08:11:16;99534.22;;;35.65;26.79
44839;BME280;30576;42.098;24.876;2022-07-30T08:13:42;99544.84;;;35.83;28.71
44839;BME280;30576;42.098;24.876;2022-07-30T08:16:08;99528.94;;;35.93;26.60
44839;BME280;30576;42.098;24.876;2022-07-30T08:18:37;99541.88;;;35.70;27.00
44839;BME280;30576;42.098;24.876;2022-07-30T08:21:03;99564.56;;;36.08;26.57
44839;BME280;30576;42.098;24.876;2022-07-30T08:23:28;99503.53;;;36.06;26.25
44839;BME280;30576;42.098;24.876;2022-07-30T08:25:56;99544.78;;;36.13;26.34
44839;BME280;30576;42.098;24.876;2022-07-30T08:28:22;99527.28;;;36.50;26.88
44839;BME280;30576;42.098;24.876;2022-07-30T08:30:48;99528.44;;;36.05;26.65
44839;BME280;30576;42.098;24.876;2022-07-30T08:33:14;99499.13;;;36.27;27.05
44839;BME280;30576;42.098;24.876;2022-07-30T08:35:39;99501.06;;;36.26;27.26
44839;BME280;30576;42.098;24.876;2022-07-30T08:38:05;99518.34;;;36.27;26.46
44839;BME280;30576;42.098;24.876;2022-07-30T08:40:33;99523.41;;;36.08;25.69
44839;BME280;30576;42.098;24.876;2022-07-30T08:43:03;99510.44;;;36.02;26.92
44839;BME280;30576;42.098;24.876;2022-07-30T08:45:32;99522.72;;;36.21;26.37
44839;BME280;30576;42.098;24.876;2022-07-30T08:48:03;99493.22;;;36.08;23.63
44839;BME280;30576;42.098;24.876;2022-07-30T08:50:32;99523.50;;;36.15;25.78
44839;BME280;30576;42.098;24.876;2022-07-30T08:53:00;99515.72;;;36.33;25.07
44839;BME280;30576;42.098;24.876;2022-07-30T08:55:26;99517.28;;;35.91;25.61
44839;BME280;30576;42.098;24.876;2022-07-30T09:02:03;99499.22;;;35.82;25.16
44839;BME280;30576;42.098;24.876;2022-07-30T09:04:29;99504.53;;;36.56;27.02
44839;BME280;30576;42.098;24.876;2022-07-30T09:06:54;99500.31;;;36.61;25.22
44839;BME280;30576;42.098;24.876;2022-07-30T09:09:21;99489.81;;;36.64;24.07
44839;BME280;30576;42.098;24.876;2022-07-30T09:11:47;99486.19;;;36.85;23.62
44839;BME280;30576;42.098;24.876;2022-07-30T09:14:13;99471.81;;;36.62;24.04
44839;BME280;30576;42.098;24.876;2022-07-30T09:16:40;99487.91;;;36.86;23.60
44839;BME280;30576;42.098;24.876;2022-07-30T09:21:37;99475.91;;;36.94;24.59
44839;BME280;30576;42.098;24.876;2022-07-30T09:24:05;99458.31;;;36.67;23.38
44839;BME280;30576;42.098;24.876;2022-07-30T09:29:27;99449.66;;;36.91;24.68
44839;BME280;30576;42.098;24.876;2022-07-30T09:32:01;99439.00;;;36.53;23.71
44839;BME280;30576;42.098;24.876;2022-07-30T09:36:57;99458.16;;;36.47;25.11
44839;BME280;30576;42.098;24.876;2022-07-30T09:39:34;99459.06;;;36.54;23.96
44839;BME280;30576;42.098;24.876;2022-07-30T09:42:02;99424.28;;;35.96;23.86
44839;BME280;30576;42.098;24.876;2022-07-30T09:44:28;99451.34;;;35.99;24.42
44839;BME280;30576;42.098;24.876;2022-07-30T09:46:55;99452.84;;;36.45;23.71
44839;BME280;30576;42.098;24.876;2022-07-30T09:49:23;99445.94;;;36.49;23.33
44839;BME280;30576;42.098;24.876;2022-07-30T09:51:50;99453.78;;;36.52;23.81
44839;BME280;30576;42.098;24.876;2022-07-30T09:54:16;99419.00;;;36.88;22.76
44839;BME280;30576;42.098;24.876;2022-07-30T09:56:42;99414.16;;;36.90;23.17
44839;BME280;30576;42.098;24.876;2022-07-30T10:01:53;99426.88;;;36.69;23.58
44839;BME280;30576;42.098;24.876;2022-07-30T10:04:26;99420.94;;;36.01;23.37
44839;BME280;30576;42.098;24.876;2022-07-30T10:06:53;99420.03;;;36.59;24.75
44839;BME280;30576;42.098;24.876;2022-07-30T10:09:28;99425.63;;;37.00;23.67
44839;BME280;30576;42.098;24.876;2022-07-30T10:12:00;99419.78;;;36.75;24.02
44839;BME280;30576;42.098;24.876;2022-07-30T10:14:32;99418.78;;;36.61;23.61
44839;BME280;30576;42.098;24.876;2022-07-30T10:16:59;99403.78;;;36.35;23.66
44839;BME280;30576;42.098;24.876;2022-07-30T10:19:25;99425.66;;;36.50;23.03
44839;BME280;30576;42.098;24.876;2022-07-30T10:21:51;99394.28;;;35.95;22.61
44839;BME280;30576;42.098;24.876;2022-07-30T10:24:18;99392.06;;;36.05;21.00
44839;BME280;30576;42.098;24.876;2022-07-30T10:26:48;99393.66;;;36.64;20.24
44839;BME280;30576;42.098;24.876;2022-07-30T10:29:15;99414.88;;;37.05;20.35
44839;BME280;30576;42.098;24.876;2022-07-30T10:31:45;99397.94;;;37.37;19.84
44839;BME280;30576;42.098;24.876;2022-07-30T10:34:12;99382.78;;;36.78;22.48
44839;BME280;30576;42.098;24.876;2022-07-30T10:36:43;99386.41;;;37.20;22.37
44839;BME280;30576;42.098;24.876;2022-07-30T10:39:14;99388.56;;;36.61;22.82
44839;BME280;30576;42.098;24.876;2022-07-30T10:44:31;99338.47;;;36.31;23.80
44839;BME280;30576;42.098;24.876;2022-07-30T10:47:06;99353.84;;;36.75;22.46
44839;BME280;30576;42.098;24.876;2022-07-30T10:49:33;99394.47;;;36.86;21.25
44839;BME280;30576;42.098;24.876;2022-07-30T10:51:59;99349.97;;;36.41;23.04
44839;BME280;30576;42.098;24.876;2022-07-30T10:59:29;99369.03;;;37.13;21.42
44839;BME280;30576;42.098;24.876;2022-07-30T11:04:23;99368.13;;;36.99;23.51
44839;BME280;30576;42.098;24.876;2022-07-30T11:06:50;99304.22;;;36.83;20.87
44839;BME280;30576;42.098;24.876;2022-07-30T11:09:38;99350.06;;;36.83;21.72
44839;BME280;30576;42.098;24.876;2022-07-30T11:12:05;99329.47;;;36.72;21.17
44839;BME280;30576;42.098;24.876;2022-07-30T11:17:13;99350.50;;;36.86;21.58
44839;BME280;30576;42.098;24.876;2022-07-30T11:22:35;99320.44;;;36.21;20.52
44839;BME280;30576;42.098;24.876;2022-07-30T11:25:05;99329.00;;;36.12;19.48
44839;BME280;30576;42.098;24.876;2022-07-30T11:30:49;99334.97;;;36.72;22.33
44839;BME280;30576;42.098;24.876;2022-07-30T11:32:51;99328.00;;;36.41;20.95
44839;BME280;30576;42.098;24.876;2022-07-30T11:35:28;99292.72;;;36.16;20.00
44839;BME280;30576;42.098;24.876;2022-07-30T11:38:14;99308.53;;;36.36;20.05
44839;BME280;30576;42.098;24.876;2022-07-30T11:43:22;99302.09;;;36.00;20.70
44839;BME280;30576;42.098;24.876;2022-07-30T11:46:04;99290.50;;;36.05;20.92
44839;BME280;30576;42.098;24.876;2022-07-30T11:48:30;99277.84;;;36.26;21.68
44839;BME280;30576;42.098;24.876;2022-07-30T11:50:56;99256.53;;;36.28;21.58
44839;BME280;30576;42.098;24.876;2022-07-30T11:53:22;99285.59;;;36.79;21.40
44839;BME280;30576;42.098;24.876;2022-07-30T11:55:52;99286.88;;;35.98;22.18
44839;BME280;30576;42.098;24.876;2022-07-30T11:58:30;99266.81;;;35.97;23.60
44839;BME280;30576;42.098;24.876;2022-07-30T12:01:19;99285.69;;;36.07;21.98
44839;BME280;30576;42.098;24.876;2022-07-30T12:03:44;99272.06;;;35.92;21.70
44839;BME280;30576;42.098;24.876;2022-07-30T12:06:13;99252.06;;;35.98;21.01
44839;BME280;30576;42.098;24.876;2022-07-30T12:08:47;99236.78;;;36.17;23.33
44839;BME280;30576;42.098;24.876;2022-07-30T12:11:13;99258.00;;;36.65;22.22
44839;BME280;30576;42.098;24.876;2022-07-30T12:13:41;99255.38;;;36.85;22.09
44839;BME280;30576;42.098;24.876;2022-07-30T12:16:11;99231.81;;;36.63;21.49
44839;BME280;30576;42.098;24.876;2022-07-30T12:18:38;99257.47;;;36.77;20.64
44839;BME280;30576;42.098;24.876;2022-07-30T12:21:05;99227.19;;;36.70;21.25
44839;BME280;30576;42.098;24.876;2022-07-30T12:23:36;99250.16;;;36.97;21.44
44839;BME280;30576;42.098;24.876;2022-07-30T12:26:02;99220.94;;;36.83;21.14
44839;BME280;30576;42.098;24.876;2022-07-30T12:28:32;99236.72;;;37.22;21.24
44839;BME280;30576;42.098;24.876;2022-07-30T12:30:59;99216.50;;;36.47;20.61
44839;BME280;30576;42.098;24.876;2022-07-30T12:33:27;99233.13;;;36.73;20.88
44839;BME280;30576;42.098;24.876;2022-07-30T12:35:55;99207.03;;;36.21;20.26
44839;BME280;30576;42.098;24.876;2022-07-30T12:38:22;99221.66;;;36.63;21.20
44839;BME280;30576;42.098;24.876;2022-07-30T12:41:03;99217.41;;;36.61;20.57
44839;BME280;30576;42.098;24.876;2022-07-30T12:46:15;99215.53;;;37.16;18.58
44839;BME280;30576;42.098;24.876;2022-07-30T12:51:30;99203.28;;;36.64;20.86
44839;BME280;30576;42.098;24.876;2022-07-30T12:54:00;99206.91;;;36.71;20.27
44839;BME280;30576;42.098;24.876;2022-07-30T12:56:26;99196.84;;;36.78;19.26
44839;BME280;30576;42.098;24.876;2022-07-30T12:58:52;99192.44;;;36.97;20.09
44839;BME280;30576;42.098;24.876;2022-07-30T13:01:18;99192.44;;;36.97;20.43
44839;BME280;30576;42.098;24.876;2022-07-30T13:03:43;99185.72;;;37.13;20.29
44839;BME280;30576;42.098;24.876;2022-07-30T13:06:21;99176.84;;;37.11;20.30
44839;BME280;30576;42.098;24.876;2022-07-30T13:08:57;99171.81;;;36.73;20.49
44839;BME280;30576;42.098;24.876;2022-07-30T13:11:26;99169.06;;;36.66;20.93
44839;BME280;30576;42.098;24.876;2022-07-30T13:14:00;99158.00;;;37.08;20.63
44839;BME280;30576;42.098;24.876;2022-07-30T13:16:29;99166.69;;;37.05;20.18
44839;BME280;30576;42.098;24.876;2022-07-30T13:18:55;99151.59;;;36.81;20.09
44839;BME280;30576;42.098;24.876;2022-07-30T13:21:20;99145.38;;;37.27;19.77
44839;BME280;30576;42.098;24.876;2022-07-30T13:23:45;99149.94;;;37.00;19.00
44839;BME280;30576;42.098;24.876;2022-07-30T13:26:10;99145.53;;;37.12;19.41
44839;BME280;30576;42.098;24.876;2022-07-30T13:28:36;99141.34;;;37.63;19.00
44839;BME280;30576;42.098;24.876;2022-07-30T13:31:02;99137.34;;;37.86;18.73
44839;BME280;30576;42.098;24.876;2022-07-30T13:33:28;99135.44;;;37.46;19.04
44839;BME280;30576;42.098;24.876;2022-07-30T13:35:53;99132.44;;;37.21;18.11
44839;BME280;30576;42.098;24.876;2022-07-30T13:38:19;99122.13;;;37.36;18.80
44839;BME280;30576;42.098;24.876;2022-07-30T13:40:44;99118.72;;;37.41;19.55
44839;BME280;30576;42.098;24.876;2022-07-30T13:43:09;99112.56;;;37.19;19.36